createdAt,value
2022-09-01T00:01:22.304Z,87.41
2022-09-01T00:06:26.812Z,86.47
2022-09-01T00:11:30.974Z,89.01
2022-09-01T00:16:36.348Z,89.39
2022-09-01T00:21:45.522Z,92.27
2022-09-01T00:26:50.777Z,91.18
2022-09-01T00:32:03.121Z,88.36
2022-09-01T00:37:12.827Z,90.40
2022-09-01T00:42:22.745Z,91.22
2022-09-01T00:47:40.830Z,90.83
2022-09-01T00:52:57.536Z,91.49
2022-09-01T00:58:19.963Z,91.74
2022-09-01T01:03:44.580Z,92.10
2022-09-01T01:09:03.236Z,87.90
2022-09-01T01:14:16.086Z,89.74
2022-09-01T01:19:43.518Z,90.41
2022-09-01T01:25:08.641Z,91.06
2022-09-01T01:30:17.654Z,91.04
2022-09-01T01:35:31.459Z,87.53
2022-09-01T01:40:39.158Z,90.15
2022-09-01T01:45:52.101Z,88.44
2022-09-01T01:51:12.775Z,89.99
2022-09-01T01:56:24.703Z,92.30
2022-09-01T02:01:46.565Z,93.10
2022-09-01T02:06:52.779Z,91.03
2022-09-01T02:12:16.001Z,88.07
2022-09-01T02:17:22.567Z,92.38
2022-09-01T02:22:32.830Z,92.38
2022-09-01T02:27:56.806Z,93.13
2022-09-01T02:33:18.967Z,93.91
2022-09-01T02:38:38.932Z,95.18
2022-09-01T02:43:51.556Z,93.83
2022-09-01T02:54:47.830Z,90.79
2022-09-01T03:00:15.678Z,94.28
2022-09-01T03:05:25.546Z,94.28
2022-09-01T03:10:37.990Z,94.02
2022-09-01T03:15:45.754Z,93.17
2022-09-01T03:26:27.606Z,93.03
2022-09-01T03:31:41.178Z,90.71
2022-09-01T03:36:50.621Z,89.75
2022-09-01T03:42:00.266Z,92.61
2022-09-01T03:47:10.874Z,94.55
2022-09-01T03:52:13.602Z,94.29
2022-09-01T03:57:18.444Z,93.35
2022-09-01T04:02:33.932Z,95.98
2022-09-01T04:07:38.846Z,95.52
2022-09-01T04:12:48.708Z,96.45
2022-09-01T04:18:11.658Z,98.42
2022-09-01T04:23:26.481Z,97.50
2022-09-01T04:28:47.066Z,99.05
2022-09-01T04:33:53.676Z,98.42
2022-09-01T04:38:58.797Z,97.42
2022-09-01T04:44:04.779Z,100.00
2022-09-01T04:49:13.071Z,100.00
2022-09-01T04:54:16.506Z,100.00
2022-09-01T04:59:21.622Z,98.31
2022-09-01T05:04:28.337Z,91.46
2022-09-01T05:09:35.571Z,88.60
2022-09-01T05:14:38.415Z,83.75
2022-09-01T05:19:45.107Z,91.74
2022-09-01T05:24:51.459Z,93.18
2022-09-01T05:30:00.177Z,93.28
2022-09-01T05:35:08.255Z,89.65
2022-09-01T05:40:16.104Z,88.71
2022-09-01T05:45:23.326Z,84.86
2022-09-01T05:50:28.305Z,87.83
2022-09-01T05:55:35.741Z,87.55
2022-09-01T06:00:38.596Z,87.47
2022-09-01T06:05:43.354Z,85.17
2022-09-01T06:10:46.030Z,87.02
2022-09-01T06:15:49.476Z,87.62
2022-09-01T06:20:53.424Z,84.75
2022-09-01T06:25:55.998Z,83.04
2022-09-01T06:30:58.844Z,83.42
2022-09-01T06:36:04.099Z,83.44
2022-09-01T06:41:13.149Z,80.77
2022-09-01T06:46:15.861Z,79.58
2022-09-01T06:51:22.234Z,80.67
2022-09-01T06:56:26.850Z,82.63
2022-09-01T07:01:35.377Z,80.30
2022-09-01T07:17:28.473Z,79.13
2022-09-01T07:22:36.085Z,78.67
2022-09-01T07:43:53.300Z,77.38
2022-09-01T07:54:24.057Z,77.48
2022-09-01T07:59:29.850Z,74.00
2022-09-01T08:04:34.032Z,75.83
2022-09-01T08:09:44.135Z,73.81
2022-09-01T08:14:47.209Z,72.68
2022-09-01T08:19:49.723Z,72.07
2022-09-01T08:24:54.796Z,70.46
2022-09-01T08:30:00.870Z,69.11
2022-09-01T08:35:05.367Z,68.22
2022-09-01T08:40:13.163Z,69.50
2022-09-01T08:45:23.628Z,67.25
2022-09-01T08:50:29.462Z,67.03
2022-09-01T08:55:39.335Z,65.97
2022-09-01T09:00:50.509Z,65.62
2022-09-01T09:06:11.788Z,64.98
2022-09-01T09:11:36.826Z,65.11
2022-09-01T09:16:43.217Z,64.30
2022-09-01T09:21:47.662Z,64.57
2022-09-01T09:26:54.028Z,65.23
2022-09-01T09:32:06.686Z,62.91
2022-09-01T09:37:25.432Z,62.62
2022-09-01T09:42:34.924Z,63.54
2022-09-01T09:47:44.870Z,59.43
2022-09-01T09:52:48.710Z,58.63
2022-09-01T09:57:57.326Z,58.93
2022-09-01T10:03:04.466Z,59.62
2022-09-01T10:08:12.741Z,55.43
2022-09-01T10:13:18.930Z,55.28
2022-09-01T10:18:29.496Z,53.02
2022-09-01T10:23:36.262Z,55.54
2022-09-01T10:28:50.719Z,56.49
2022-09-01T10:33:58.717Z,57.65
2022-09-01T10:39:06.175Z,57.80
2022-09-01T10:44:20.400Z,59.19
2022-09-01T10:49:59.045Z,61.17
2022-09-01T10:55:04.270Z,57.16
2022-09-01T11:01:10.585Z,50.92
2022-09-01T11:06:12.946Z,53.40
2022-09-01T11:11:31.059Z,53.01
2022-09-01T11:16:53.191Z,51.53
2022-09-01T11:22:12.849Z,52.48
2022-09-01T11:27:52.116Z,49.02
2022-09-01T11:33:11.769Z,45.52
2022-09-01T11:38:22.584Z,48.77
2022-09-01T11:43:31.610Z,47.18
2022-09-01T11:48:39.277Z,45.09
2022-09-01T11:53:47.758Z,48.68
2022-09-01T11:58:50.340Z,45.61
2022-09-01T12:03:54.327Z,44.74
2022-09-01T12:09:00.311Z,46.69
2022-09-01T12:14:10.928Z,47.03
2022-09-01T12:19:24.409Z,49.16
2022-09-01T12:24:28.707Z,51.74
2022-09-01T12:29:33.146Z,49.06
2022-09-01T12:34:46.608Z,49.07
2022-09-01T12:39:52.920Z,49.49
2022-09-01T12:44:59.360Z,50.38
2022-09-01T12:50:03.643Z,50.39
2022-09-01T13:00:56.887Z,48.64
2022-09-01T13:06:00.686Z,47.39
2022-09-01T13:11:07.265Z,46.73
2022-09-01T13:16:13.041Z,44.11
2022-09-01T13:21:16.757Z,42.67
2022-09-01T13:26:20.848Z,43.80
2022-09-01T13:31:31.761Z,44.08
2022-09-01T13:36:52.340Z,43.42
2022-09-01T13:41:56.902Z,41.79
2022-09-01T13:46:59.866Z,44.22
2022-09-01T13:52:03.651Z,43.35
2022-09-01T13:57:07.963Z,43.97
2022-09-01T14:02:11.015Z,43.09
2022-09-01T14:07:13.709Z,44.58
2022-09-01T14:12:17.743Z,45.63
2022-09-01T14:17:20.373Z,44.09
2022-09-01T14:22:22.887Z,43.77
2022-09-01T14:27:26.869Z,42.52
2022-09-01T14:32:29.526Z,42.94
2022-09-01T14:37:32.087Z,42.01
2022-09-01T14:42:37.223Z,43.22
2022-09-01T14:47:39.760Z,44.40
2022-09-01T14:52:42.829Z,45.41
2022-09-01T14:57:46.761Z,44.42
2022-09-01T15:02:49.509Z,44.88
2022-09-01T15:07:52.341Z,47.58
2022-09-01T15:12:59.106Z,44.94
2022-09-01T15:18:03.140Z,44.55
2022-09-01T15:23:06.708Z,44.89
2022-09-01T15:28:10.798Z,44.65
2022-09-01T15:33:15.662Z,44.84
2022-09-01T15:38:18.852Z,48.10
2022-09-01T15:43:23.029Z,46.63
2022-09-01T15:48:26.199Z,47.54
2022-09-01T15:53:28.941Z,48.36
2022-09-01T15:58:44.499Z,46.82
2022-09-01T16:03:54.645Z,47.63
2022-09-01T16:08:57.616Z,49.57
2022-09-01T16:14:01.855Z,48.52
2022-09-01T16:19:12.900Z,48.74
2022-09-01T16:24:16.051Z,49.05
2022-09-01T16:29:25.344Z,49.24
2022-09-01T16:34:28.575Z,49.12
2022-09-01T16:39:40.822Z,51.82
2022-09-01T16:44:56.604Z,49.70
2022-09-01T16:50:09.940Z,49.41
2022-09-01T16:55:24.722Z,49.93
2022-09-01T17:00:37.170Z,49.75
2022-09-01T17:05:46.923Z,49.07
2022-09-01T17:10:55.163Z,48.62
2022-09-01T17:16:06.727Z,48.12
2022-09-01T17:21:14.642Z,48.51
2022-09-01T17:26:23.600Z,50.26
2022-09-01T17:31:49.544Z,52.52
2022-09-01T17:37:05.184Z,53.44
2022-09-01T17:42:21.612Z,54.20
2022-09-01T17:47:33.085Z,56.75
2022-09-01T17:52:52.628Z,56.24
2022-09-01T17:58:01.260Z,56.93
2022-09-01T18:03:22.648Z,57.37
2022-09-01T18:08:33.302Z,57.77
2022-09-01T18:13:53.001Z,59.38
2022-09-01T18:19:03.718Z,59.96
2022-09-01T18:24:15.057Z,59.97
2022-09-01T18:29:18.718Z,60.02
2022-09-01T18:34:36.034Z,61.52
2022-09-01T18:39:51.558Z,61.73
2022-09-01T18:45:05.448Z,62.43
2022-09-01T18:50:17.888Z,62.91
2022-09-01T18:55:28.099Z,62.25
2022-09-01T19:00:36.418Z,60.97
2022-09-01T19:06:07.926Z,61.98
2022-09-01T19:11:17.294Z,62.40
2022-09-01T19:16:39.184Z,62.03
2022-09-01T19:21:45.469Z,63.55
2022-09-01T19:26:51.853Z,61.47
2022-09-01T19:32:01.805Z,60.77
2022-09-01T19:37:07.008Z,62.38
2022-09-01T19:42:14.908Z,63.05
2022-09-01T19:47:26.390Z,63.07
2022-09-01T19:52:36.534Z,64.85
2022-09-01T19:57:45.573Z,65.98
2022-09-01T20:02:55.754Z,66.69
2022-09-01T20:08:04.355Z,64.69
2022-09-01T20:13:25.022Z,65.29
2022-09-01T20:18:31.552Z,67.96
2022-09-01T20:23:43.268Z,67.14
2022-09-01T20:28:52.013Z,69.81
2022-09-01T20:33:59.358Z,72.60
2022-09-01T20:39:27.882Z,74.19
2022-09-01T20:44:37.272Z,75.50
2022-09-01T20:49:41.149Z,72.89
2022-09-01T20:54:51.981Z,70.04
2022-09-01T20:59:56.613Z,67.98
2022-09-01T21:05:09.051Z,68.46
2022-09-01T21:10:22.278Z,73.53
2022-09-01T21:15:35.406Z,70.09
2022-09-01T21:20:50.918Z,73.42
2022-09-01T21:25:54.988Z,74.19
2022-09-01T21:31:00.196Z,73.81
2022-09-01T21:36:03.479Z,77.30
2022-09-01T21:41:12.973Z,78.96
2022-09-01T21:46:16.429Z,80.01
2022-09-01T21:51:19.037Z,80.63
2022-09-01T21:56:25.907Z,82.20
2022-09-01T22:01:31.088Z,82.82
2022-09-01T22:06:34.110Z,83.82
2022-09-01T22:11:38.320Z,84.41
2022-09-01T22:16:41.057Z,82.03
2022-09-01T22:21:44.176Z,80.43
2022-09-01T22:26:49.196Z,80.51
2022-09-01T22:31:52.113Z,85.91
2022-09-01T22:36:54.776Z,84.54
2022-09-01T22:41:58.960Z,81.20
2022-09-01T22:47:01.484Z,83.30
2022-09-01T22:52:04.689Z,83.60
2022-09-01T22:57:08.567Z,86.11
2022-09-01T23:02:11.844Z,83.63
2022-09-01T23:07:14.843Z,85.13
2022-09-01T23:12:18.833Z,87.02
2022-09-01T23:17:21.475Z,85.80
2022-09-01T23:22:23.990Z,83.21
2022-09-01T23:27:27.921Z,78.95
2022-09-01T23:32:30.889Z,78.26
2022-09-01T23:37:35.253Z,76.50
2022-09-01T23:42:39.369Z,75.98
2022-09-01T23:47:42.544Z,76.27
2022-09-01T23:52:46.221Z,76.50
2022-09-01T23:57:50.333Z,75.76
